sensor_id;sensor_type;location;lat;lon;timestamp;P1;durP1;ratioP1;P2;durP2;ratioP2
64854;SDS011;51321;50.428;8.378;2022-08-21T16:46:44;2.22;;;0.88;;
64854;SDS011;51321;50.428;8.378;2022-08-21T16:49:07;4.47;;;1.08;;
64854;SDS011;51321;50.428;8.378;2022-08-21T16:51:29;2.25;;;0.80;;
64854;SDS011;51321;50.428;8.378;2022-08-21T16:53:51;4.00;;;0.90;;
64854;SDS011;51321;50.428;8.378;2022-08-21T16:56:13;3.65;;;1.15;;
64854;SDS011;51321;50.428;8.378;2022-08-21T16:58:38;2.85;;;0.88;;
64854;SDS011;51321;50.428;8.378;2022-08-21T17:01:03;3.45;;;0.90;;
64854;SDS011;51321;50.428;8.378;2022-08-21T17:03:29;3.15;;;0.75;;
64854;SDS011;51321;50.428;8.378;2022-08-21T17:05:53;1.77;;;0.80;;
64854;SDS011;51321;50.428;8.378;2022-08-21T17:08:15;4.72;;;0.90;;
64854;SDS011;51321;50.428;8.378;2022-08-21T17:10:37;2.53;;;1.00;;
64854;SDS011;51321;50.428;8.378;2022-08-21T17:13:03;4.20;;;1.30;;
64854;SDS011;51321;50.428;8.378;2022-08-21T17:15:26;3.42;;;0.95;;
64854;SDS011;51321;50.428;8.378;2022-08-21T17:17:54;3.08;;;1.05;;
64854;SDS011;51321;50.428;8.378;2022-08-21T17:20:18;3.72;;;1.02;;
64854;SDS011;51321;50.428;8.378;2022-08-21T17:22:41;6.68;;;1.15;;
64854;SDS011;51321;50.428;8.378;2022-08-21T17:25:03;3.85;;;0.90;;
64854;SDS011;51321;50.428;8.378;2022-08-21T17:27:25;4.00;;;1.30;;
64854;SDS011;51321;50.428;8.378;2022-08-21T17:29:48;2.85;;;1.20;;
64854;SDS011;51321;50.428;8.378;2022-08-21T17:36:55;4.60;;;1.15;;
64854;SDS011;51321;50.428;8.378;2022-08-21T17:39:17;3.10;;;0.73;;
64854;SDS011;51321;50.428;8.378;2022-08-21T17:41:39;6.90;;;1.33;;
64854;SDS011;51321;50.428;8.378;2022-08-21T17:44:02;14.18;;;1.70;;
64854;SDS011;51321;50.428;8.378;2022-08-21T17:46:28;9.90;;;1.60;;
64854;SDS011;51321;50.428;8.378;2022-08-21T17:48:50;2.35;;;1.00;;
64854;SDS011;51321;50.428;8.378;2022-08-21T17:51:12;5.43;;;1.42;;
64854;SDS011;51321;50.428;8.378;2022-08-21T17:53:35;3.90;;;0.93;;
64854;SDS011;51321;50.428;8.378;2022-08-21T17:55:57;3.30;;;0.95;;
64854;SDS011;51321;50.428;8.378;2022-08-21T17:58:19;4.25;;;1.20;;
64854;SDS011;51321;50.428;8.378;2022-08-21T18:00:41;5.00;;;0.90;;
64854;SDS011;51321;50.428;8.378;2022-08-21T18:03:04;4.10;;;1.00;;
64854;SDS011;51321;50.428;8.378;2022-08-21T18:05:28;4.35;;;1.50;;
64854;SDS011;51321;50.428;8.378;2022-08-21T18:10:13;5.07;;;1.03;;
64854;SDS011;51321;50.428;8.378;2022-08-21T18:12:35;3.22;;;1.00;;
64854;SDS011;51321;50.428;8.378;2022-08-21T18:14:58;6.10;;;1.20;;
64854;SDS011;51321;50.428;8.378;2022-08-21T18:17:21;9.07;;;1.38;;
64854;SDS011;51321;50.428;8.378;2022-08-21T18:19:43;11.82;;;1.90;;
64854;SDS011;51321;50.428;8.378;2022-08-21T18:22:05;11.20;;;1.58;;
64854;SDS011;51321;50.428;8.378;2022-08-21T18:24:27;16.65;;;2.25;;
64854;SDS011;51321;50.428;8.378;2022-08-21T18:26:51;17.15;;;2.30;;
64854;SDS011;51321;50.428;8.378;2022-08-21T18:29:15;9.20;;;1.35;;
64854;SDS011;51321;50.428;8.378;2022-08-21T18:31:39;5.90;;;1.38;;
64854;SDS011;51321;50.428;8.378;2022-08-21T18:34:05;7.95;;;1.67;;
64854;SDS011;51321;50.428;8.378;2022-08-21T18:36:31;5.05;;;1.73;;
64854;SDS011;51321;50.428;8.378;2022-08-21T18:38:53;8.43;;;1.95;;
64854;SDS011;51321;50.428;8.378;2022-08-21T18:41:14;12.23;;;1.73;;
64854;SDS011;51321;50.428;8.378;2022-08-21T18:43:38;15.10;;;1.65;;
64854;SDS011;51321;50.428;8.378;2022-08-21T18:46:00;2.53;;;0.90;;
64854;SDS011;51321;50.428;8.378;2022-08-21T18:48:22;3.47;;;1.10;;
64854;SDS011;51321;50.428;8.378;2022-08-21T18:53:06;3.90;;;0.85;;
64854;SDS011;51321;50.428;8.378;2022-08-21T18:57:50;2.33;;;0.88;;
64854;SDS011;51321;50.428;8.378;2022-08-21T19:00:17;5.78;;;1.55;;
64854;SDS011;51321;50.428;8.378;2022-08-21T19:02:42;3.08;;;0.93;;
64854;SDS011;51321;50.428;8.378;2022-08-21T19:05:04;5.03;;;1.60;;
64854;SDS011;51321;50.428;8.378;2022-08-21T19:07:27;3.47;;;1.02;;
64854;SDS011;51321;50.428;8.378;2022-08-21T19:09:49;4.13;;;1.10;;
64854;SDS011;51321;50.428;8.378;2022-08-21T19:12:13;4.28;;;1.25;;
64854;SDS011;51321;50.428;8.378;2022-08-21T19:14:40;2.20;;;1.05;;
64854;SDS011;51321;50.428;8.378;2022-08-21T19:17:04;3.28;;;1.02;;
64854;SDS011;51321;50.428;8.378;2022-08-21T19:19:26;3.40;;;1.10;;
64854;SDS011;51321;50.428;8.378;2022-08-21T19:21:47;3.38;;;1.00;;
64854;SDS011;51321;50.428;8.378;2022-08-21T19:24:09;2.60;;;1.20;;
64854;SDS011;51321;50.428;8.378;2022-08-21T19:26:31;3.33;;;1.42;;
64854;SDS011;51321;50.428;8.378;2022-08-21T19:28:54;2.85;;;1.00;;
64854;SDS011;51321;50.428;8.378;2022-08-21T19:31:19;4.45;;;1.00;;
64854;SDS011;51321;50.428;8.378;2022-08-21T19:33:47;4.53;;;1.35;;
64854;SDS011;51321;50.428;8.378;2022-08-21T19:36:11;3.40;;;1.10;;
64854;SDS011;51321;50.428;8.378;2022-08-21T19:38:33;4.30;;;1.00;;
64854;SDS011;51321;50.428;8.378;2022-08-21T19:40:55;3.25;;;1.10;;
64854;SDS011;51321;50.428;8.378;2022-08-21T19:43:17;2.00;;;0.90;;
64854;SDS011;51321;50.428;8.378;2022-08-21T19:45:40;2.45;;;0.85;;
64854;SDS011;51321;50.428;8.378;2022-08-21T19:48:02;4.05;;;1.20;;
64854;SDS011;51321;50.428;8.378;2022-08-21T19:50:26;2.60;;;1.23;;
64854;SDS011;51321;50.428;8.378;2022-08-21T19:52:48;4.15;;;1.77;;
64854;SDS011;51321;50.428;8.378;2022-08-21T19:55:10;3.60;;;1.40;;
64854;SDS011;51321;50.428;8.378;2022-08-21T19:57:32;4.43;;;1.00;;
64854;SDS011;51321;50.428;8.378;2022-08-21T19:59:55;4.20;;;1.00;;
64854;SDS011;51321;50.428;8.378;2022-08-21T20:02:17;4.68;;;1.00;;
64854;SDS011;51321;50.428;8.378;2022-08-21T20:04:38;3.40;;;1.40;;
64854;SDS011;51321;50.428;8.378;2022-08-21T20:07:02;3.35;;;1.13;;
64854;SDS011;51321;50.428;8.378;2022-08-21T20:09:24;2.70;;;1.30;;
64854;SDS011;51321;50.428;8.378;2022-08-21T20:11:47;2.55;;;0.95;;
64854;SDS011;51321;50.428;8.378;2022-08-21T20:14:11;2.40;;;0.93;;
64854;SDS011;51321;50.428;8.378;2022-08-21T20:16:34;2.67;;;0.82;;
64854;SDS011;51321;50.428;8.378;2022-08-21T20:18:57;2.85;;;0.80;;
64854;SDS011;51321;50.428;8.378;2022-08-21T20:21:19;4.25;;;1.50;;
64854;SDS011;51321;50.428;8.378;2022-08-21T20:23:42;2.15;;;0.88;;
64854;SDS011;51321;50.428;8.378;2022-08-21T20:26:04;2.60;;;1.10;;
64854;SDS011;51321;50.428;8.378;2022-08-21T20:28:26;1.80;;;1.00;;
64854;SDS011;51321;50.428;8.378;2022-08-21T20:30:48;2.45;;;0.90;;
64854;SDS011;51321;50.428;8.378;2022-08-21T20:33:11;4.25;;;1.30;;
64854;SDS011;51321;50.428;8.378;2022-08-21T20:35:33;2.10;;;1.02;;
64854;SDS011;51321;50.428;8.378;2022-08-21T20:37:55;4.18;;;0.93;;
64854;SDS011;51321;50.428;8.378;2022-08-21T20:40:18;3.97;;;1.45;;
64854;SDS011;51321;50.428;8.378;2022-08-21T20:42:42;3.92;;;1.10;;
64854;SDS011;51321;50.428;8.378;2022-08-21T20:45:07;2.63;;;1.02;;
64854;SDS011;51321;50.428;8.378;2022-08-21T20:47:30;3.90;;;1.00;;
64854;SDS011;51321;50.428;8.378;2022-08-21T20:49:52;2.40;;;1.20;;
64854;SDS011;51321;50.428;8.378;2022-08-21T20:52:20;2.22;;;1.00;;
64854;SDS011;51321;50.428;8.378;2022-08-21T20:54:47;2.15;;;0.70;;
64854;SDS011;51321;50.428;8.378;2022-08-21T20:57:16;1.98;;;0.90;;
64854;SDS011;51321;50.428;8.378;2022-08-21T20:59:44;2.00;;;1.05;;
64854;SDS011;51321;50.428;8.378;2022-08-21T21:02:18;3.55;;;0.90;;
64854;SDS011;51321;50.428;8.378;2022-08-21T21:04:47;2.85;;;1.15;;
64854;SDS011;51321;50.428;8.378;2022-08-21T21:07:12;2.67;;;1.23;;
64854;SDS011;51321;50.428;8.378;2022-08-21T21:09:41;2.47;;;0.90;;
64854;SDS011;51321;50.428;8.378;2022-08-21T21:12:06;4.18;;;1.08;;
64854;SDS011;51321;50.428;8.378;2022-08-21T21:14:36;2.97;;;0.90;;
64854;SDS011;51321;50.428;8.378;2022-08-21T21:17:03;2.40;;;0.90;;
64854;SDS011;51321;50.428;8.378;2022-08-21T21:19:28;2.25;;;1.15;;
64854;SDS011;51321;50.428;8.378;2022-08-21T21:21:55;1.77;;;0.90;;
64854;SDS011;51321;50.428;8.378;2022-08-21T21:24:22;3.00;;;0.95;;
64854;SDS011;51321;50.428;8.378;2022-08-21T21:26:47;3.42;;;1.00;;
64854;SDS011;51321;50.428;8.378;2022-08-21T21:29:13;2.08;;;1.10;;
64854;SDS011;51321;50.428;8.378;2022-08-21T21:31:41;2.80;;;1.40;;
64854;SDS011;51321;50.428;8.378;2022-08-21T21:34:03;4.95;;;1.15;;
64854;SDS011;51321;50.428;8.378;2022-08-21T21:36:27;2.63;;;1.45;;
64854;SDS011;51321;50.428;8.378;2022-08-21T21:38:55;3.30;;;1.00;;
64854;SDS011;51321;50.428;8.378;2022-08-21T21:41:26;2.78;;;1.10;;
64854;SDS011;51321;50.428;8.378;2022-08-21T21:44:16;1.67;;;1.20;;
64854;SDS011;51321;50.428;8.378;2022-08-21T21:46:54;2.58;;;1.00;;
64854;SDS011;51321;50.428;8.378;2022-08-21T21:49:28;3.50;;;0.90;;
64854;SDS011;51321;50.428;8.378;2022-08-21T21:52:02;2.22;;;1.30;;
64854;SDS011;51321;50.428;8.378;2022-08-21T21:54:39;3.55;;;1.00;;
64854;SDS011;51321;50.428;8.378;2022-08-21T21:57:17;3.10;;;1.27;;
64854;SDS011;51321;50.428;8.378;2022-08-21T21:59:48;2.30;;;1.20;;
64854;SDS011;51321;50.428;8.378;2022-08-21T22:02:20;2.63;;;0.98;;
64854;SDS011;51321;50.428;8.378;2022-08-21T22:04:54;3.47;;;1.10;;
64854;SDS011;51321;50.428;8.378;2022-08-21T22:07:24;1.83;;;1.02;;
64854;SDS011;51321;50.428;8.378;2022-08-21T22:09:53;3.08;;;1.13;;
64854;SDS011;51321;50.428;8.378;2022-08-21T22:12:26;3.00;;;1.40;;
64854;SDS011;51321;50.428;8.378;2022-08-21T22:14:52;3.55;;;1.35;;
64854;SDS011;51321;50.428;8.378;2022-08-21T22:17:21;1.30;;;1.10;;
64854;SDS011;51321;50.428;8.378;2022-08-21T22:19:57;1.35;;;1.00;;
64854;SDS011;51321;50.428;8.378;2022-08-21T22:22:25;2.13;;;1.00;;
64854;SDS011;51321;50.428;8.378;2022-08-21T22:24:49;2.22;;;0.98;;
64854;SDS011;51321;50.428;8.378;2022-08-21T22:27:15;3.25;;;1.13;;
64854;SDS011;51321;50.428;8.378;2022-08-21T22:29:41;3.10;;;1.00;;
64854;SDS011;51321;50.428;8.378;2022-08-21T22:32:06;4.05;;;1.40;;
64854;SDS011;51321;50.428;8.378;2022-08-21T22:34:31;5.38;;;1.90;;
64854;SDS011;51321;50.428;8.378;2022-08-21T22:36:54;2.53;;;1.20;;
64854;SDS011;51321;50.428;8.378;2022-08-21T22:39:24;2.28;;;1.20;;
64854;SDS011;51321;50.428;8.378;2022-08-21T22:41:47;2.65;;;1.20;;
64854;SDS011;51321;50.428;8.378;2022-08-21T22:44:17;2.75;;;1.00;;
64854;SDS011;51321;50.428;8.378;2022-08-21T22:46:41;2.50;;;1.02;;
64854;SDS011;51321;50.428;8.378;2022-08-21T22:49:06;3.40;;;1.60;;
64854;SDS011;51321;50.428;8.378;2022-08-21T22:51:37;2.38;;;0.90;;
64854;SDS011;51321;50.428;8.378;2022-08-21T22:54:02;3.05;;;1.40;;
64854;SDS011;51321;50.428;8.378;2022-08-21T22:56:27;5.47;;;1.00;;
64854;SDS011;51321;50.428;8.378;2022-08-21T22:58:52;3.10;;;1.15;;
64854;SDS011;51321;50.428;8.378;2022-08-21T23:01:28;2.65;;;1.05;;
64854;SDS011;51321;50.428;8.378;2022-08-21T23:03:53;3.40;;;1.05;;
64854;SDS011;51321;50.428;8.378;2022-08-21T23:06:21;2.30;;;1.10;;
64854;SDS011;51321;50.428;8.378;2022-08-21T23:08:45;2.92;;;1.33;;
64854;SDS011;51321;50.428;8.378;2022-08-21T23:11:10;1.80;;;0.88;;
64854;SDS011;51321;50.428;8.378;2022-08-21T23:13:37;3.58;;;0.85;;
64854;SDS011;51321;50.428;8.378;2022-08-21T23:16:03;2.92;;;0.90;;
64854;SDS011;51321;50.428;8.378;2022-08-21T23:18:36;2.05;;;0.82;;
64854;SDS011;51321;50.428;8.378;2022-08-21T23:21:17;2.78;;;1.10;;
64854;SDS011;51321;50.428;8.378;2022-08-21T23:23:55;3.47;;;1.42;;
64854;SDS011;51321;50.428;8.378;2022-08-21T23:26:28;1.63;;;0.73;;
64854;SDS011;51321;50.428;8.378;2022-08-21T23:29:02;2.05;;;1.10;;
64854;SDS011;51321;50.428;8.378;2022-08-21T23:31:39;2.38;;;0.80;;
64854;SDS011;51321;50.428;8.378;2022-08-21T23:34:09;2.70;;;1.00;;
64854;SDS011;51321;50.428;8.378;2022-08-21T23:36:42;2.22;;;0.85;;
64854;SDS011;51321;50.428;8.378;2022-08-21T23:39:38;2.53;;;1.20;;
64854;SDS011;51321;50.428;8.378;2022-08-21T23:42:10;2.03;;;1.10;;
64854;SDS011;51321;50.428;8.378;2022-08-21T23:44:44;2.03;;;1.00;;
64854;SDS011;51321;50.428;8.378;2022-08-21T23:47:17;3.13;;;1.20;;
64854;SDS011;51321;50.428;8.378;2022-08-21T23:49:59;2.20;;;0.85;;
64854;SDS011;51321;50.428;8.378;2022-08-21T23:52:27;1.58;;;0.85;;
64854;SDS011;51321;50.428;8.378;2022-08-21T23:55:02;2.13;;;1.00;;
64854;SDS011;51321;50.428;8.378;2022-08-21T23:57:43;2.00;;;0.90;;
